sensor_id;sensor_type;location;lat;lon;timestamp;pressure;altitude;pressure_sealevel;temperature;humidity
48041;BME280;33815;48.386;11.738;2023-02-28T00:01:36;97073.16;;;-3.47;88.77
48041;BME280;33815;48.386;11.738;2023-02-28T00:04:01;97069.47;;;-3.63;89.29
48041;BME280;33815;48.386;11.738;2023-02-28T00:06:26;97068.16;;;-3.75;90.44
48041;BME280;33815;48.386;11.738;2023-02-28T00:08:52;97063.34;;;-3.57;89.63
48041;BME280;33815;48.386;11.738;2023-02-28T00:11:17;97061.91;;;-3.65;89.91
48041;BME280;33815;48.386;11.738;2023-02-28T00:13:45;97066.09;;;-3.64;88.78
48041;BME280;33815;48.386;11.738;2023-02-28T00:16:14;97077.31;;;-3.69;89.76
48041;BME280;33815;48.386;11.738;2023-02-28T00:18:40;97057.25;;;-3.79;89.47
48041;BME280;33815;48.386;11.738;2023-02-28T00:21:06;97068.75;;;-3.93;90.65
48041;BME280;33815;48.386;11.738;2023-02-28T00:23:31;97063.28;;;-4.08;91.83
48041;BME280;33815;48.386;11.738;2023-02-28T00:25:57;97063.94;;;-4.30;92.50
48041;BME280;33815;48.386;11.738;2023-02-28T00:28:22;97060.19;;;-4.18;93.15
48041;BME280;33815;48.386;11.738;2023-02-28T00:30:48;97050.28;;;-4.27;93.45
48041;BME280;33815;48.386;11.738;2023-02-28T00:33:13;97057.00;;;-4.24;93.66
48041;BME280;33815;48.386;11.738;2023-02-28T00:35:39;97052.78;;;-3.99;92.88
48041;BME280;33815;48.386;11.738;2023-02-28T00:38:04;97057.88;;;-3.99;92.02
48041;BME280;33815;48.386;11.738;2023-02-28T00:40:29;97059.94;;;-4.10;93.13
48041;BME280;33815;48.386;11.738;2023-02-28T00:42:55;97051.41;;;-4.09;92.53
48041;BME280;33815;48.386;11.738;2023-02-28T00:45:20;97054.25;;;-4.18;92.54
48041;BME280;33815;48.386;11.738;2023-02-28T00:47:46;97047.56;;;-4.21;93.26
48041;BME280;33815;48.386;11.738;2023-02-28T00:50:15;97045.41;;;-4.06;92.38
48041;BME280;33815;48.386;11.738;2023-02-28T00:52:41;97048.78;;;-4.06;93.60
48041;BME280;33815;48.386;11.738;2023-02-28T00:55:06;97055.84;;;-4.42;94.98
48041;BME280;33815;48.386;11.738;2023-02-28T00:57:33;97057.66;;;-4.46;94.31
48041;BME280;33815;48.386;11.738;2023-02-28T00:59:58;97045.84;;;-4.20;94.68
48041;BME280;33815;48.386;11.738;2023-02-28T01:02:23;97047.56;;;-4.49;94.07
48041;BME280;33815;48.386;11.738;2023-02-28T01:04:48;97032.16;;;-4.44;94.41
48041;BME280;33815;48.386;11.738;2023-02-28T01:07:14;97041.81;;;-4.27;93.78
48041;BME280;33815;48.386;11.738;2023-02-28T01:09:39;97036.31;;;-4.42;94.42
48041;BME280;33815;48.386;11.738;2023-02-28T01:12:06;97049.19;;;-4.47;95.74
48041;BME280;33815;48.386;11.738;2023-02-28T01:14:32;97044.81;;;-4.15;93.22
48041;BME280;33815;48.386;11.738;2023-02-28T01:16:57;97041.22;;;-4.36;94.43
48041;BME280;33815;48.386;11.738;2023-02-28T01:19:22;97027.28;;;-4.24;93.65
48041;BME280;33815;48.386;11.738;2023-02-28T01:21:47;97036.13;;;-4.36;94.43
48041;BME280;33815;48.386;11.738;2023-02-28T01:24:13;97038.34;;;-4.25;94.51
48041;BME280;33815;48.386;11.738;2023-02-28T01:26:38;97033.94;;;-4.20;93.73
48041;BME280;33815;48.386;11.738;2023-02-28T01:29:03;97033.06;;;-4.19;93.58
48041;BME280;33815;48.386;11.738;2023-02-28T01:31:28;97030.78;;;-4.01;93.74
48041;BME280;33815;48.386;11.738;2023-02-28T01:33:54;97037.50;;;-4.25;94.18
48041;BME280;33815;48.386;11.738;2023-02-28T01:36:21;97024.78;;;-4.25;93.93
48041;BME280;33815;48.386;11.738;2023-02-28T01:38:47;97045.16;;;-3.99;94.58
48041;BME280;33815;48.386;11.738;2023-02-28T01:41:19;97038.84;;;-3.87;92.60
48041;BME280;33815;48.386;11.738;2023-02-28T01:46:11;97020.19;;;-4.14;93.59
48041;BME280;33815;48.386;11.738;2023-02-28T01:48:40;97037.38;;;-3.94;94.03
48041;BME280;33815;48.386;11.738;2023-02-28T01:51:14;97009.81;;;-4.08;93.87
48041;BME280;33815;48.386;11.738;2023-02-28T01:53:44;97023.03;;;-3.97;93.68
48041;BME280;33815;48.386;11.738;2023-02-28T01:56:12;97029.59;;;-3.89;93.16
48041;BME280;33815;48.386;11.738;2023-02-28T01:58:39;97027.09;;;-3.66;92.14
48041;BME280;33815;48.386;11.738;2023-02-28T02:01:04;97027.50;;;-3.78;92.77
48041;BME280;33815;48.386;11.738;2023-02-28T02:03:30;97026.06;;;-3.85;92.91
48041;BME280;33815;48.386;11.738;2023-02-28T02:05:56;97012.31;;;-4.06;93.71
48041;BME280;33815;48.386;11.738;2023-02-28T02:08:26;97025.09;;;-4.08;94.06
48041;BME280;33815;48.386;11.738;2023-02-28T02:10:59;97021.84;;;-4.13;94.52
48041;BME280;33815;48.386;11.738;2023-02-28T02:13:34;97022.13;;;-4.22;94.46
48041;BME280;33815;48.386;11.738;2023-02-28T02:16:12;97022.53;;;-4.35;95.37
48041;BME280;33815;48.386;11.738;2023-02-28T02:18:54;97027.34;;;-4.54;97.00
48041;BME280;33815;48.386;11.738;2023-02-28T02:21:54;97024.59;;;-4.48;97.32
48041;BME280;33815;48.386;11.738;2023-02-28T02:24:47;97025.66;;;-4.55;98.01
48041;BME280;33815;48.386;11.738;2023-02-28T02:27:28;97023.97;;;-4.54;97.50
48041;BME280;33815;48.386;11.738;2023-02-28T02:38:20;97013.56;;;-4.47;98.24
48041;BME280;33815;48.386;11.738;2023-02-28T02:43:40;97008.38;;;-4.72;99.04
48041;BME280;33815;48.386;11.738;2023-02-28T02:46:10;97013.19;;;-4.62;99.28
48041;BME280;33815;48.386;11.738;2023-02-28T02:48:39;97018.44;;;-4.69;99.78
48041;BME280;33815;48.386;11.738;2023-02-28T02:51:11;97023.38;;;-4.62;99.61
48041;BME280;33815;48.386;11.738;2023-02-28T02:53:44;97029.38;;;-4.65;99.69
48041;BME280;33815;48.386;11.738;2023-02-28T02:56:11;97003.38;;;-4.75;100.00
48041;BME280;33815;48.386;11.738;2023-02-28T02:58:40;97028.91;;;-4.50;99.62
48041;BME280;33815;48.386;11.738;2023-02-28T03:01:08;97019.50;;;-4.48;98.74
48041;BME280;33815;48.386;11.738;2023-02-28T03:03:36;97006.78;;;-4.46;99.49
48041;BME280;33815;48.386;11.738;2023-02-28T03:06:02;97026.13;;;-4.42;99.13
48041;BME280;33815;48.386;11.738;2023-02-28T03:08:29;97000.69;;;-4.42;99.02
48041;BME280;33815;48.386;11.738;2023-02-28T03:11:03;97007.28;;;-4.36;99.15
48041;BME280;33815;48.386;11.738;2023-02-28T03:25:04;97020.53;;;-3.98;96.17
48041;BME280;33815;48.386;11.738;2023-02-28T03:27:42;97002.13;;;-4.06;97.19
48041;BME280;33815;48.386;11.738;2023-02-28T03:31:00;97023.66;;;-3.90;97.39
48041;BME280;33815;48.386;11.738;2023-02-28T03:33:12;97012.84;;;-3.97;96.63
48041;BME280;33815;48.386;11.738;2023-02-28T03:35:47;97017.03;;;-3.69;95.73
48041;BME280;33815;48.386;11.738;2023-02-28T03:38:22;97011.94;;;-3.70;95.98
48041;BME280;33815;48.386;11.738;2023-02-28T03:40:57;97021.72;;;-3.58;95.31
48041;BME280;33815;48.386;11.738;2023-02-28T03:43:29;97012.84;;;-3.71;95.97
48041;BME280;33815;48.386;11.738;2023-02-28T03:45:56;97021.06;;;-3.88;96.67
48041;BME280;33815;48.386;11.738;2023-02-28T03:48:44;97016.84;;;-3.89;96.37
48041;BME280;33815;48.386;11.738;2023-02-28T03:51:16;97021.13;;;-3.91;97.05
48041;BME280;33815;48.386;11.738;2023-02-28T03:54:03;97009.47;;;-3.72;96.71
48041;BME280;33815;48.386;11.738;2023-02-28T03:56:34;97026.41;;;-3.46;94.22
48041;BME280;33815;48.386;11.738;2023-02-28T03:59:18;97021.47;;;-3.75;96.03
48041;BME280;33815;48.386;11.738;2023-02-28T04:01:47;97027.06;;;-3.64;94.84
48041;BME280;33815;48.386;11.738;2023-02-28T04:04:14;97014.03;;;-3.56;94.70
48041;BME280;33815;48.386;11.738;2023-02-28T04:06:40;97013.78;;;-3.74;94.94
48041;BME280;33815;48.386;11.738;2023-02-28T04:09:07;97017.84;;;-3.68;93.95
48041;BME280;33815;48.386;11.738;2023-02-28T04:11:42;97036.88;;;-3.79;96.09
48041;BME280;33815;48.386;11.738;2023-02-28T04:14:08;97035.50;;;-3.89;96.53
48041;BME280;33815;48.386;11.738;2023-02-28T04:16:36;97037.75;;;-3.80;96.54
48041;BME280;33815;48.386;11.738;2023-02-28T04:19:03;97039.31;;;-3.75;96.73
48041;BME280;33815;48.386;11.738;2023-02-28T04:21:35;97043.84;;;-3.58;96.07
48041;BME280;33815;48.386;11.738;2023-02-28T04:24:01;97055.31;;;-3.72;95.54
48041;BME280;33815;48.386;11.738;2023-02-28T04:26:33;97041.75;;;-3.47;95.21
48041;BME280;33815;48.386;11.738;2023-02-28T04:28:59;97050.38;;;-3.76;95.76
48041;BME280;33815;48.386;11.738;2023-02-28T04:31:25;97053.34;;;-3.64;94.51
48041;BME280;33815;48.386;11.738;2023-02-28T04:33:50;97051.66;;;-3.63;95.28
48041;BME280;33815;48.386;11.738;2023-02-28T04:36:16;97045.19;;;-3.73;95.79
48041;BME280;33815;48.386;11.738;2023-02-28T04:38:43;97049.75;;;-3.83;96.36
48041;BME280;33815;48.386;11.738;2023-02-28T04:41:09;97048.81;;;-3.81;95.54
48041;BME280;33815;48.386;11.738;2023-02-28T04:43:34;97053.25;;;-3.61;95.50
48041;BME280;33815;48.386;11.738;2023-02-28T04:46:01;97058.44;;;-3.64;95.40
48041;BME280;33815;48.386;11.738;2023-02-28T04:48:28;97055.69;;;-3.83;97.00
48041;BME280;33815;48.386;11.738;2023-02-28T04:50:54;97058.19;;;-3.56;96.16
48041;BME280;33815;48.386;11.738;2023-02-28T04:53:19;97057.25;;;-3.79;96.13
48041;BME280;33815;48.386;11.738;2023-02-28T04:55:45;97060.13;;;-3.89;95.47
48041;BME280;33815;48.386;11.738;2023-02-28T04:58:11;97049.16;;;-3.91;96.86
48041;BME280;33815;48.386;11.738;2023-02-28T05:00:36;97044.22;;;-3.96;95.77
48041;BME280;33815;48.386;11.738;2023-02-28T05:03:01;97059.66;;;-4.01;97.15
48041;BME280;33815;48.386;11.738;2023-02-28T05:05:27;97062.97;;;-3.99;97.59
48041;BME280;33815;48.386;11.738;2023-02-28T05:07:52;97057.00;;;-3.98;96.29
48041;BME280;33815;48.386;11.738;2023-02-28T05:10:18;97053.59;;;-3.97;96.77
48041;BME280;33815;48.386;11.738;2023-02-28T05:12:44;97062.97;;;-3.99;96.98
48041;BME280;33815;48.386;11.738;2023-02-28T05:15:12;97043.41;;;-4.23;98.66
48041;BME280;33815;48.386;11.738;2023-02-28T05:17:38;97057.31;;;-4.35;98.97
48041;BME280;33815;48.386;11.738;2023-02-28T05:20:04;97060.06;;;-4.41;100.00
48041;BME280;33815;48.386;11.738;2023-02-28T05:22:30;97066.47;;;-4.30;100.00
48041;BME280;33815;48.386;11.738;2023-02-28T05:24:55;97048.59;;;-4.28;100.00
48041;BME280;33815;48.386;11.738;2023-02-28T05:27:20;97061.53;;;-4.34;100.00
48041;BME280;33815;48.386;11.738;2023-02-28T05:29:46;97065.03;;;-4.38;100.00
48041;BME280;33815;48.386;11.738;2023-02-28T05:32:11;97071.06;;;-4.41;100.00
48041;BME280;33815;48.386;11.738;2023-02-28T05:34:40;97071.84;;;-4.39;100.00
48041;BME280;33815;48.386;11.738;2023-02-28T05:37:11;97055.63;;;-4.36;100.00
48041;BME280;33815;48.386;11.738;2023-02-28T05:39:37;97053.75;;;-4.58;100.00
48041;BME280;33815;48.386;11.738;2023-02-28T05:42:02;97071.91;;;-4.40;100.00
48041;BME280;33815;48.386;11.738;2023-02-28T05:44:27;97076.34;;;-4.47;100.00
48041;BME280;33815;48.386;11.738;2023-02-28T05:46:53;97075.06;;;-4.34;100.00
48041;BME280;33815;48.386;11.738;2023-02-28T05:49:18;97075.88;;;-4.32;99.64
48041;BME280;33815;48.386;11.738;2023-02-28T05:51:43;97067.84;;;-4.48;99.90
48041;BME280;33815;48.386;11.738;2023-02-28T05:54:08;97073.28;;;-4.58;100.00
48041;BME280;33815;48.386;11.738;2023-02-28T05:56:34;97080.31;;;-4.38;99.72
48041;BME280;33815;48.386;11.738;2023-02-28T05:59:00;97079.94;;;-4.26;99.76
48041;BME280;33815;48.386;11.738;2023-02-28T06:01:39;97082.94;;;-4.13;98.66
48041;BME280;33815;48.386;11.738;2023-02-28T06:04:08;97076.00;;;-4.36;98.92
48041;BME280;33815;48.386;11.738;2023-02-28T06:06:33;97077.72;;;-4.37;98.48
48041;BME280;33815;48.386;11.738;2023-02-28T06:09:03;97083.81;;;-4.42;98.99
48041;BME280;33815;48.386;11.738;2023-02-28T06:11:28;97083.06;;;-4.44;99.81
48041;BME280;33815;48.386;11.738;2023-02-28T06:13:57;97082.03;;;-4.39;99.42
48041;BME280;33815;48.386;11.738;2023-02-28T06:16:25;97083.22;;;-4.51;98.86
48041;BME280;33815;48.386;11.738;2023-02-28T06:18:51;97069.16;;;-4.62;99.80
48041;BME280;33815;48.386;11.738;2023-02-28T06:21:17;97073.13;;;-4.54;99.23
48041;BME280;33815;48.386;11.738;2023-02-28T06:23:43;97068.69;;;-4.77;100.00
48041;BME280;33815;48.386;11.738;2023-02-28T06:26:09;97093.28;;;-4.46;99.79
48041;BME280;33815;48.386;11.738;2023-02-28T06:28:34;97093.00;;;-4.67;99.97
48041;BME280;33815;48.386;11.738;2023-02-28T06:30:59;97084.41;;;-4.62;99.63
48041;BME280;33815;48.386;11.738;2023-02-28T06:33:24;97099.03;;;-4.69;100.00
48041;BME280;33815;48.386;11.738;2023-02-28T06:35:50;97103.75;;;-4.57;100.00
48041;BME280;33815;48.386;11.738;2023-02-28T06:38:16;97089.97;;;-4.50;99.18
48041;BME280;33815;48.386;11.738;2023-02-28T06:40:43;97091.88;;;-4.56;99.15
48041;BME280;33815;48.386;11.738;2023-02-28T06:43:08;97092.25;;;-4.70;100.00
48041;BME280;33815;48.386;11.738;2023-02-28T06:45:34;97104.19;;;-4.42;98.59
48041;BME280;33815;48.386;11.738;2023-02-28T06:47:59;97108.72;;;-4.52;99.36
48041;BME280;33815;48.386;11.738;2023-02-28T06:50:25;97106.25;;;-4.55;99.69
48041;BME280;33815;48.386;11.738;2023-02-28T06:52:50;97118.97;;;-4.55;99.97
48041;BME280;33815;48.386;11.738;2023-02-28T06:55:19;97110.25;;;-4.47;99.35
48041;BME280;33815;48.386;11.738;2023-02-28T06:57:44;97097.38;;;-4.42;99.49
48041;BME280;33815;48.386;11.738;2023-02-28T07:00:10;97084.25;;;-4.28;97.90
48041;BME280;33815;48.386;11.738;2023-02-28T07:02:36;97103.50;;;-4.19;98.02
48041;BME280;33815;48.386;11.738;2023-02-28T07:05:03;97119.03;;;-4.00;97.48
48041;BME280;33815;48.386;11.738;2023-02-28T07:07:28;97122.50;;;-4.03;97.87
48041;BME280;33815;48.386;11.738;2023-02-28T07:09:53;97106.69;;;-4.13;97.88
48041;BME280;33815;48.386;11.738;2023-02-28T07:12:18;97122.56;;;-3.78;96.81
48041;BME280;33815;48.386;11.738;2023-02-28T07:14:44;97120.00;;;-3.51;94.41
48041;BME280;33815;48.386;11.738;2023-02-28T07:17:10;97121.84;;;-3.54;94.00
48041;BME280;33815;48.386;11.738;2023-02-28T07:19:38;97123.25;;;-3.46;93.67
48041;BME280;33815;48.386;11.738;2023-02-28T07:22:03;97125.34;;;-3.32;92.76
48041;BME280;33815;48.386;11.738;2023-02-28T07:24:29;97112.72;;;-3.10;91.44
48041;BME280;33815;48.386;11.738;2023-02-28T07:26:55;97108.13;;;-3.00;91.60
48041;BME280;33815;48.386;11.738;2023-02-28T07:29:20;97120.00;;;-2.51;90.34
48041;BME280;33815;48.386;11.738;2023-02-28T07:31:46;97116.41;;;-2.24;87.66
48041;BME280;33815;48.386;11.738;2023-02-28T07:34:12;97119.34;;;-1.88;82.97
48041;BME280;33815;48.386;11.738;2023-02-28T07:36:37;97101.63;;;-1.71;83.34
48041;BME280;33815;48.386;11.738;2023-02-28T07:39:02;97112.50;;;-1.45;81.92
48041;BME280;33815;48.386;11.738;2023-02-28T07:41:29;97118.97;;;-1.16;79.81
48041;BME280;33815;48.386;11.738;2023-02-28T07:43:54;97110.75;;;-0.83;77.42
48041;BME280;33815;48.386;11.738;2023-02-28T07:46:22;97111.72;;;-0.85;76.34
48041;BME280;33815;48.386;11.738;2023-02-28T07:48:47;97122.56;;;-0.60;76.10
48041;BME280;33815;48.386;11.738;2023-02-28T07:51:13;97129.50;;;-0.24;75.00
48041;BME280;33815;48.386;11.738;2023-02-28T07:53:38;97116.75;;;-0.25;73.62
48041;BME280;33815;48.386;11.738;2023-02-28T07:56:04;97107.41;;;-0.26;73.62
48041;BME280;33815;48.386;11.738;2023-02-28T07:58:30;97118.75;;;-0.51;73.03
48041;BME280;33815;48.386;11.738;2023-02-28T08:00:56;97112.16;;;-0.76;74.28
48041;BME280;33815;48.386;11.738;2023-02-28T08:03:22;97123.38;;;-0.78;75.62
48041;BME280;33815;48.386;11.738;2023-02-28T08:05:49;97111.75;;;-1.06;76.27
48041;BME280;33815;48.386;11.738;2023-02-28T08:08:16;97131.19;;;-1.23;75.92
48041;BME280;33815;48.386;11.738;2023-02-28T08:10:42;97085.16;;;-1.23;77.35
48041;BME280;33815;48.386;11.738;2023-02-28T08:13:07;97115.19;;;-0.87;76.74
48041;BME280;33815;48.386;11.738;2023-02-28T08:15:33;97138.00;;;-0.23;74.70
48041;BME280;33815;48.386;11.738;2023-02-28T08:17:58;97128.84;;;-0.29;74.97
48041;BME280;33815;48.386;11.738;2023-02-28T08:20:25;97122.81;;;-0.09;73.65
48041;BME280;33815;48.386;11.738;2023-02-28T08:22:50;97127.47;;;0.20;72.50
48041;BME280;33815;48.386;11.738;2023-02-28T08:25:16;97119.59;;;0.24;72.20
48041;BME280;33815;48.386;11.738;2023-02-28T08:27:41;97113.88;;;0.37;70.56
48041;BME280;33815;48.386;11.738;2023-02-28T08:30:07;97125.38;;;0.10;70.82
48041;BME280;33815;48.386;11.738;2023-02-28T08:32:34;97113.84;;;0.19;69.68
48041;BME280;33815;48.386;11.738;2023-02-28T08:35:00;97123.38;;;-0.02;70.77
48041;BME280;33815;48.386;11.738;2023-02-28T08:37:25;97130.63;;;0.44;70.82
48041;BME280;33815;48.386;11.738;2023-02-28T08:39:50;97123.28;;;0.36;70.32
48041;BME280;33815;48.386;11.738;2023-02-28T08:42:16;97135.50;;;0.31;70.47
48041;BME280;33815;48.386;11.738;2023-02-28T08:44:41;97119.13;;;-0.03;69.28
48041;BME280;33815;48.386;11.738;2023-02-28T08:47:06;97123.44;;;0.15;69.58
48041;BME280;33815;48.386;11.738;2023-02-28T08:49:32;97130.16;;;-0.01;70.57
48041;BME280;33815;48.386;11.738;2023-02-28T08:51:57;97125.31;;;-0.07;70.64
48041;BME280;33815;48.386;11.738;2023-02-28T08:54:23;97144.53;;;0.21;71.03
48041;BME280;33815;48.386;11.738;2023-02-28T08:56:48;97130.38;;;-0.25;70.44
48041;BME280;33815;48.386;11.738;2023-02-28T08:59:14;97156.06;;;-0.07;71.22
48041;BME280;33815;48.386;11.738;2023-02-28T09:01:40;97142.28;;;0.32;70.49
48041;BME280;33815;48.386;11.738;2023-02-28T09:04:06;97141.78;;;0.60;69.00
48041;BME280;33815;48.386;11.738;2023-02-28T09:06:33;97134.78;;;0.64;69.42
48041;BME280;33815;48.386;11.738;2023-02-28T09:08:59;97146.00;;;0.61;67.52
48041;BME280;33815;48.386;11.738;2023-02-28T09:11:26;97146.16;;;0.76;69.17
48041;BME280;33815;48.386;11.738;2023-02-28T09:13:51;97143.38;;;0.80;68.00
48041;BME280;33815;48.386;11.738;2023-02-28T09:16:17;97133.34;;;0.93;65.74
48041;BME280;33815;48.386;11.738;2023-02-28T09:18:43;97138.63;;;0.73;65.43
48041;BME280;33815;48.386;11.738;2023-02-28T09:21:11;97149.84;;;1.05;67.59
48041;BME280;33815;48.386;11.738;2023-02-28T09:23:39;97144.34;;;1.46;65.21
48041;BME280;33815;48.386;11.738;2023-02-28T09:26:05;97142.00;;;1.42;66.42
48041;BME280;33815;48.386;11.738;2023-02-28T09:28:31;97144.81;;;1.70;64.10
48041;BME280;33815;48.386;11.738;2023-02-28T09:30:56;97142.78;;;1.60;64.71
48041;BME280;33815;48.386;11.738;2023-02-28T09:33:25;97143.00;;;1.73;66.06
48041;BME280;33815;48.386;11.738;2023-02-28T09:35:57;97140.03;;;1.47;63.15
48041;BME280;33815;48.386;11.738;2023-02-28T09:38:23;97144.88;;;1.69;66.86
48041;BME280;33815;48.386;11.738;2023-02-28T09:40:55;97157.59;;;1.88;62.73
48041;BME280;33815;48.386;11.738;2023-02-28T09:43:23;97141.75;;;1.80;62.79
48041;BME280;33815;48.386;11.738;2023-02-28T09:46:05;97162.81;;;2.02;64.93
48041;BME280;33815;48.386;11.738;2023-02-28T09:48:34;97142.78;;;2.39;62.12
48041;BME280;33815;48.386;11.738;2023-02-28T09:54:19;97167.97;;;2.65;64.45
48041;BME280;33815;48.386;11.738;2023-02-28T09:56:49;97155.97;;;3.24;64.60
48041;BME280;33815;48.386;11.738;2023-02-28T09:59:41;97147.88;;;3.74;60.17
48041;BME280;33815;48.386;11.738;2023-02-28T10:02:35;97153.94;;;3.73;59.78
48041;BME280;33815;48.386;11.738;2023-02-28T10:05:12;97145.22;;;3.61;56.49
48041;BME280;33815;48.386;11.738;2023-02-28T10:08:11;97160.41;;;3.51;62.53
48041;BME280;33815;48.386;11.738;2023-02-28T10:10:47;97154.97;;;4.26;60.00
48041;BME280;33815;48.386;11.738;2023-02-28T10:13:22;97157.47;;;3.43;58.62
48041;BME280;33815;48.386;11.738;2023-02-28T10:15:53;97159.50;;;3.52;59.07
48041;BME280;33815;48.386;11.738;2023-02-28T10:18:25;97155.88;;;3.55;58.88
48041;BME280;33815;48.386;11.738;2023-02-28T10:20:53;97156.09;;;3.37;59.61
48041;BME280;33815;48.386;11.738;2023-02-28T10:23:25;97171.97;;;3.15;59.88
48041;BME280;33815;48.386;11.738;2023-02-28T10:25:58;97155.81;;;3.42;59.63
48041;BME280;33815;48.386;11.738;2023-02-28T10:28:25;97159.31;;;3.55;56.72
48041;BME280;33815;48.386;11.738;2023-02-28T10:30:53;97164.75;;;3.65;58.96
48041;BME280;33815;48.386;11.738;2023-02-28T10:33:25;97167.13;;;3.54;59.27
48041;BME280;33815;48.386;11.738;2023-02-28T10:35:53;97164.28;;;3.87;57.32
48041;BME280;33815;48.386;11.738;2023-02-28T10:38:33;97153.22;;;3.42;58.07
48041;BME280;33815;48.386;11.738;2023-02-28T10:41:13;97155.16;;;3.82;60.25
48041;BME280;33815;48.386;11.738;2023-02-28T10:43:41;97150.13;;;4.07;57.01
48041;BME280;33815;48.386;11.738;2023-02-28T10:48:39;97152.31;;;3.72;55.38
48041;BME280;33815;48.386;11.738;2023-02-28T10:51:07;97165.06;;;4.17;56.36
48041;BME280;33815;48.386;11.738;2023-02-28T10:53:37;97148.88;;;4.00;55.29
48041;BME280;33815;48.386;11.738;2023-02-28T10:56:14;97164.59;;;4.10;57.59
48041;BME280;33815;48.386;11.738;2023-02-28T10:59:03;97156.91;;;4.50;58.78
48041;BME280;33815;48.386;11.738;2023-02-28T11:01:46;97153.19;;;4.54;55.23
48041;BME280;33815;48.386;11.738;2023-02-28T11:07:10;97166.13;;;4.27;56.90
48041;BME280;33815;48.386;11.738;2023-02-28T11:09:45;97169.00;;;4.22;57.25
48041;BME280;33815;48.386;11.738;2023-02-28T11:12:28;97156.41;;;4.31;55.94
48041;BME280;33815;48.386;11.738;2023-02-28T11:17:54;97169.69;;;3.97;57.42
48041;BME280;33815;48.386;11.738;2023-02-28T11:20:23;97166.31;;;4.24;56.38
48041;BME280;33815;48.386;11.738;2023-02-28T11:22:50;97161.16;;;4.24;57.34
48041;BME280;33815;48.386;11.738;2023-02-28T11:25:26;97161.69;;;4.56;54.68
48041;BME280;33815;48.386;11.738;2023-02-28T11:27:58;97157.75;;;4.51;55.64
48041;BME280;33815;48.386;11.738;2023-02-28T11:30:29;97165.66;;;4.20;54.33
48041;BME280;33815;48.386;11.738;2023-02-28T11:32:56;97168.28;;;4.06;56.30
48041;BME280;33815;48.386;11.738;2023-02-28T11:35:32;97153.84;;;4.31;57.16
48041;BME280;33815;48.386;11.738;2023-02-28T11:38:00;97151.44;;;4.42;55.50
48041;BME280;33815;48.386;11.738;2023-02-28T11:40:43;97149.34;;;4.74;55.84
48041;BME280;33815;48.386;11.738;2023-02-28T11:43:40;97154.91;;;4.81;54.48
48041;BME280;33815;48.386;11.738;2023-02-28T11:46:20;97142.34;;;4.89;54.55
48041;BME280;33815;48.386;11.738;2023-02-28T11:49:18;97149.75;;;4.81;53.96
48041;BME280;33815;48.386;11.738;2023-02-28T11:51:54;97142.94;;;4.67;54.31
48041;BME280;33815;48.386;11.738;2023-02-28T12:00:15;97132.88;;;5.54;54.34
48041;BME280;33815;48.386;11.738;2023-02-28T12:03:13;97127.59;;;5.93;54.93
48041;BME280;33815;48.386;11.738;2023-02-28T12:05:49;97124.88;;;6.20;55.03
48041;BME280;33815;48.386;11.738;2023-02-28T12:11:12;97119.41;;;6.36;53.07
48041;BME280;33815;48.386;11.738;2023-02-28T12:13:53;97103.41;;;5.94;50.37
48041;BME280;33815;48.386;11.738;2023-02-28T12:19:18;97116.66;;;6.26;50.72
48041;BME280;33815;48.386;11.738;2023-02-28T12:22:19;97108.34;;;6.34;49.51
48041;BME280;33815;48.386;11.738;2023-02-28T12:27:41;97115.50;;;6.30;51.55
48041;BME280;33815;48.386;11.738;2023-02-28T12:30:27;97107.34;;;6.24;51.26
48041;BME280;33815;48.386;11.738;2023-02-28T12:33:09;97107.38;;;5.61;50.63
48041;BME280;33815;48.386;11.738;2023-02-28T12:35:43;97118.84;;;6.68;53.80
48041;BME280;33815;48.386;11.738;2023-02-28T12:41:38;97093.31;;;6.75;51.03
48041;BME280;33815;48.386;11.738;2023-02-28T12:44:16;97096.66;;;6.99;49.71
48041;BME280;33815;48.386;11.738;2023-02-28T12:46:47;97079.31;;;6.89;48.95
48041;BME280;33815;48.386;11.738;2023-02-28T12:49:21;97098.69;;;6.72;50.22
48041;BME280;33815;48.386;11.738;2023-02-28T12:51:47;97085.53;;;6.75;48.43
48041;BME280;33815;48.386;11.738;2023-02-28T13:00:01;97094.09;;;7.45;48.04
48041;BME280;33815;48.386;11.738;2023-02-28T13:05:26;97085.88;;;7.28;48.86
48041;BME280;33815;48.386;11.738;2023-02-28T13:10:47;97074.50;;;7.07;47.42
48041;BME280;33815;48.386;11.738;2023-02-28T13:13:17;97079.31;;;6.89;49.12
48041;BME280;33815;48.386;11.738;2023-02-28T13:16:03;97083.97;;;7.19;49.05
48041;BME280;33815;48.386;11.738;2023-02-28T13:18:37;97086.47;;;6.74;49.03
48041;BME280;33815;48.386;11.738;2023-02-28T13:21:06;97087.06;;;6.77;47.68
48041;BME280;33815;48.386;11.738;2023-02-28T13:23:38;97085.38;;;7.46;48.17
48041;BME280;33815;48.386;11.738;2023-02-28T13:26:04;97065.94;;;7.06;47.11
48041;BME280;33815;48.386;11.738;2023-02-28T13:28:59;97081.34;;;6.96;47.21
48041;BME280;33815;48.386;11.738;2023-02-28T13:31:25;97071.72;;;7.44;46.38
48041;BME280;33815;48.386;11.738;2023-02-28T13:38:46;97068.16;;;7.22;47.27
48041;BME280;33815;48.386;11.738;2023-02-28T13:52:14;97070.19;;;7.52;47.20
48041;BME280;33815;48.386;11.738;2023-02-28T14:03:20;97061.31;;;6.98;46.41
48041;BME280;33815;48.386;11.738;2023-02-28T14:06:20;97068.44;;;6.61;48.71
48041;BME280;33815;48.386;11.738;2023-02-28T14:11:38;97082.19;;;6.26;47.87
48041;BME280;33815;48.386;11.738;2023-02-28T14:14:06;97087.03;;;6.30;49.21
48041;BME280;33815;48.386;11.738;2023-02-28T14:16:44;97080.53;;;5.88;48.40
48041;BME280;33815;48.386;11.738;2023-02-28T14:19:23;97079.34;;;5.68;49.86
48041;BME280;33815;48.386;11.738;2023-02-28T14:25:04;97072.88;;;6.59;49.03
48041;BME280;33815;48.386;11.738;2023-02-28T14:30:37;97077.22;;;7.05;47.82
48041;BME280;33815;48.386;11.738;2023-02-28T14:33:31;97079.19;;;6.43;49.11
48041;BME280;33815;48.386;11.738;2023-02-28T14:36:16;97081.69;;;6.92;48.75
48041;BME280;33815;48.386;11.738;2023-02-28T14:41:21;97082.13;;;6.74;48.55
48041;BME280;33815;48.386;11.738;2023-02-28T14:44:17;97078.06;;;6.59;46.67
48041;BME280;33815;48.386;11.738;2023-02-28T14:46:44;97076.06;;;6.51;48.37
48041;BME280;33815;48.386;11.738;2023-02-28T14:49:17;97083.00;;;6.26;48.76